createdAt,value
2018-10-18T00:01:01.635Z,23.63
2018-10-18T00:03:29.350Z,23.73
2018-10-18T00:05:56.967Z,23.93
2018-10-18T00:08:24.643Z,22.90
2018-10-18T00:10:52.263Z,22.47
2018-10-18T00:13:19.930Z,21.17
2018-10-18T00:15:47.823Z,19.17
2018-10-18T00:18:15.630Z,19.70
2018-10-18T00:20:43.131Z,20.20
2018-10-18T00:23:10.861Z,19.67
2018-10-18T00:25:38.430Z,18.80
2018-10-18T00:28:06.125Z,18.00
2018-10-18T00:30:33.719Z,18.63
2018-10-18T00:33:01.395Z,18.00
2018-10-18T00:35:28.983Z,16.93
2018-10-18T00:37:56.701Z,17.83
2018-10-18T00:40:24.245Z,18.50
2018-10-18T00:42:51.927Z,19.57
2018-10-18T00:45:19.458Z,18.57
2018-10-18T00:47:47.262Z,16.03
2018-10-18T00:50:14.914Z,16.60
2018-10-18T00:52:42.471Z,19.07
2018-10-18T00:55:11.003Z,16.80
2018-10-18T00:57:39.310Z,17.07
2018-10-18T01:00:08.099Z,17.60
2018-10-18T01:02:35.715Z,16.73
2018-10-18T01:05:03.430Z,16.80
2018-10-18T01:07:31.136Z,19.70
2018-10-18T01:09:58.745Z,20.90
2018-10-18T01:12:26.495Z,19.27
2018-10-18T01:14:54.007Z,18.30
2018-10-18T01:17:21.634Z,18.63
2018-10-18T01:19:49.187Z,20.67
2018-10-18T01:22:16.852Z,18.17
2018-10-18T01:24:44.415Z,16.97
2018-10-18T01:27:12.047Z,16.90
2018-10-18T01:29:39.740Z,18.37
2018-10-18T01:32:07.495Z,17.03
2018-10-18T01:34:34.995Z,18.43
2018-10-18T01:37:02.641Z,17.30
2018-10-18T01:39:30.291Z,16.83
2018-10-18T01:41:57.934Z,17.83
2018-10-18T01:44:25.545Z,18.70
2018-10-18T01:46:53.131Z,17.10
2018-10-18T01:49:20.771Z,16.93
2018-10-18T01:51:48.342Z,18.87
2018-10-18T01:54:16.035Z,19.20
2018-10-18T01:56:43.627Z,22.47
2018-10-18T01:59:11.279Z,21.57
2018-10-18T02:01:38.886Z,19.43
2018-10-18T02:04:06.597Z,17.73
2018-10-18T02:06:34.247Z,18.23
2018-10-18T02:09:01.941Z,19.13
2018-10-18T02:11:29.663Z,16.03
2018-10-18T02:13:57.379Z,18.10
2018-10-18T02:16:24.965Z,20.67
2018-10-18T02:18:52.666Z,18.33
2018-10-18T02:21:20.206Z,17.03
2018-10-18T02:23:47.844Z,19.50
2018-10-18T02:26:15.419Z,19.17
2018-10-18T02:28:43.073Z,16.97
2018-10-18T02:31:10.699Z,18.53
2018-10-18T02:33:38.267Z,20.90
2018-10-18T02:36:05.960Z,19.37
2018-10-18T02:38:33.703Z,17.97
2018-10-18T02:41:01.306Z,19.37
2018-10-18T02:43:28.916Z,17.50
2018-10-18T02:45:56.511Z,17.60
2018-10-18T02:48:24.147Z,19.37
2018-10-18T02:50:51.779Z,19.00
2018-10-18T02:53:19.427Z,19.63
2018-10-18T02:55:47.019Z,18.30
2018-10-18T02:58:14.644Z,20.57
2018-10-18T03:00:42.281Z,19.47
2018-10-18T03:03:09.963Z,17.60
2018-10-18T03:05:37.549Z,18.07
2018-10-18T03:08:05.249Z,16.77
2018-10-18T03:10:32.878Z,18.10
2018-10-18T03:13:00.647Z,17.83
2018-10-18T03:15:28.324Z,17.50
2018-10-18T03:17:56.019Z,18.20
2018-10-18T03:20:23.621Z,16.83
2018-10-18T03:22:51.234Z,17.40
2018-10-18T03:25:18.895Z,16.53
2018-10-18T03:27:46.507Z,17.83
2018-10-18T03:30:14.180Z,17.83
2018-10-18T03:32:41.743Z,17.33
2018-10-18T03:35:09.595Z,19.40
2018-10-18T03:37:37.465Z,17.90
2018-10-18T03:40:05.720Z,18.93
2018-10-18T03:42:33.319Z,16.33
2018-10-18T03:45:00.962Z,16.17
2018-10-18T03:47:28.561Z,17.90
2018-10-18T03:49:56.174Z,16.63
2018-10-18T03:52:23.760Z,16.63
2018-10-18T03:54:51.363Z,16.60
2018-10-18T03:57:18.970Z,17.73
2018-10-18T03:59:46.628Z,20.00
2018-10-18T04:02:14.240Z,15.83
2018-10-18T04:04:41.895Z,17.00
2018-10-18T04:07:09.772Z,15.17
2018-10-18T04:09:37.395Z,17.43
2018-10-18T04:12:05.863Z,19.07
2018-10-18T04:14:33.541Z,16.03
2018-10-18T04:17:01.195Z,18.93
2018-10-18T04:19:28.875Z,16.77
2018-10-18T04:21:56.482Z,17.20
2018-10-18T04:24:24.072Z,17.27
2018-10-18T04:26:51.638Z,17.13
2018-10-18T04:29:19.283Z,17.27
2018-10-18T04:31:46.971Z,17.90
2018-10-18T04:34:14.615Z,19.03
2018-10-18T04:36:42.255Z,18.50
2018-10-18T04:39:11.729Z,19.50
2018-10-18T04:41:39.408Z,18.27
2018-10-18T04:44:07.110Z,20.13
2018-10-18T04:46:34.742Z,20.37
2018-10-18T04:49:02.347Z,19.20
2018-10-18T04:51:29.950Z,22.73
2018-10-18T04:53:57.511Z,20.83
2018-10-18T04:56:25.492Z,21.93
2018-10-18T04:58:53.035Z,19.80
2018-10-18T05:01:20.900Z,21.57
2018-10-18T05:03:48.310Z,19.67
2018-10-18T05:06:15.909Z,19.87
2018-10-18T05:08:43.590Z,19.13
2018-10-18T05:11:11.212Z,19.70
2018-10-18T05:13:38.807Z,20.30
2018-10-18T05:16:06.444Z,17.87
2018-10-18T05:18:34.054Z,20.57
2018-10-18T05:21:01.724Z,20.30
2018-10-18T05:23:29.355Z,19.83
2018-10-18T05:25:57.041Z,17.10
2018-10-18T05:28:24.713Z,17.03
2018-10-18T05:30:52.322Z,17.40
2018-10-18T05:33:19.942Z,16.43
2018-10-18T05:35:47.546Z,20.00
2018-10-18T05:38:15.367Z,18.13
2018-10-18T05:40:43.055Z,28.03
2018-10-18T05:43:10.811Z,18.00
2018-10-18T05:45:38.367Z,19.33
2018-10-18T05:48:06.038Z,17.67
2018-10-18T05:50:33.597Z,16.40
2018-10-18T05:53:01.278Z,17.83
2018-10-18T05:55:28.905Z,20.00
2018-10-18T05:57:56.468Z,18.20
2018-10-18T06:00:24.345Z,17.67
2018-10-18T06:02:52.000Z,20.73
2018-10-18T06:05:19.720Z,18.03
2018-10-18T06:07:47.368Z,20.60
2018-10-18T06:10:26.864Z,19.57
2018-10-18T06:12:54.545Z,19.00
2018-10-18T06:15:22.647Z,19.80
2018-10-18T06:17:50.284Z,19.73
2018-10-18T06:20:18.432Z,21.93
2018-10-18T06:22:46.062Z,21.43
2018-10-18T06:25:13.756Z,23.37
2018-10-18T06:27:41.361Z,25.30
2018-10-18T06:30:11.187Z,18.60
2018-10-18T06:32:38.791Z,19.40
2018-10-18T06:35:07.600Z,19.50
2018-10-18T06:37:35.479Z,20.77
2018-10-18T06:40:03.487Z,23.03
2018-10-18T06:42:31.112Z,21.30
2018-10-18T06:44:58.770Z,21.10
2018-10-18T06:47:26.588Z,22.57
2018-10-18T06:49:54.365Z,24.10
2018-10-18T06:52:22.231Z,19.33
2018-10-18T06:54:49.911Z,22.57
2018-10-18T06:57:17.534Z,22.33
2018-10-18T06:59:45.140Z,21.23
2018-10-18T07:02:12.794Z,20.30
2018-10-18T07:04:40.471Z,20.73
2018-10-18T07:07:08.083Z,21.40
2018-10-18T07:09:35.751Z,23.90
2018-10-18T07:12:03.621Z,20.57
2018-10-18T07:14:31.263Z,22.20
2018-10-18T07:16:58.898Z,19.30
2018-10-18T07:19:26.548Z,20.97
2018-10-18T07:21:54.152Z,21.10
2018-10-18T07:24:21.777Z,19.13
2018-10-18T07:26:49.504Z,23.67
2018-10-18T07:29:17.168Z,20.10
2018-10-18T07:31:44.755Z,17.57
2018-10-18T07:34:12.367Z,17.83
2018-10-18T07:36:40.071Z,18.43
2018-10-18T07:39:10.027Z,18.43
2018-10-18T07:41:37.651Z,16.63
2018-10-18T07:44:05.347Z,19.77
2018-10-18T07:46:33.021Z,17.33
2018-10-18T07:49:00.630Z,20.47
2018-10-18T07:51:28.371Z,17.20
2018-10-18T07:53:56.134Z,19.20
2018-10-18T07:56:23.755Z,21.67
2018-10-18T07:58:51.382Z,22.17
2018-10-18T08:01:19.080Z,19.97
2018-10-18T08:03:46.731Z,20.93
2018-10-18T08:06:14.434Z,21.93
2018-10-18T08:08:42.031Z,19.50
2018-10-18T08:11:09.729Z,21.87
2018-10-18T08:13:37.418Z,22.37
2018-10-18T08:16:05.307Z,22.70
2018-10-18T08:18:32.963Z,21.57
2018-10-18T08:21:00.551Z,24.00
2018-10-18T08:23:28.223Z,21.17
2018-10-18T08:25:55.879Z,20.27
2018-10-18T08:28:23.534Z,22.37
2018-10-18T08:30:53.951Z,23.93
2018-10-18T08:33:22.829Z,23.03
2018-10-18T08:35:50.512Z,23.13
2018-10-18T08:38:19.127Z,20.43
2018-10-18T08:40:46.706Z,21.77
2018-10-18T08:43:14.402Z,20.93
2018-10-18T08:45:42.141Z,21.77
2018-10-18T08:48:09.766Z,21.37
2018-10-18T08:50:37.419Z,21.40
2018-10-18T08:53:05.271Z,20.90
2018-10-18T08:55:32.984Z,28.53
2018-10-18T08:58:00.570Z,21.23
2018-10-18T09:00:28.275Z,20.67
2018-10-18T09:02:55.983Z,20.80
2018-10-18T09:05:23.693Z,20.03
2018-10-18T09:07:51.483Z,21.33
2018-10-18T09:10:19.154Z,20.27
2018-10-18T09:12:46.758Z,20.77
2018-10-18T09:15:14.411Z,18.50
2018-10-18T09:17:42.094Z,19.87
2018-10-18T09:20:09.737Z,19.80
2018-10-18T09:22:37.444Z,18.60
2018-10-18T09:25:06.037Z,20.33
2018-10-18T09:27:33.690Z,20.30
2018-10-18T09:30:01.324Z,19.33
2018-10-18T09:32:29.095Z,19.10
2018-10-18T09:34:56.694Z,19.70
2018-10-18T09:37:24.378Z,20.03
2018-10-18T09:39:52.032Z,21.20
2018-10-18T09:42:19.791Z,18.20
2018-10-18T09:44:47.452Z,19.00
2018-10-18T09:47:15.202Z,20.03
2018-10-18T09:49:42.807Z,20.27
2018-10-18T09:52:10.739Z,18.03
2018-10-18T09:54:38.407Z,18.00
2018-10-18T09:57:06.023Z,17.53
2018-10-18T09:59:33.639Z,17.03
2018-10-18T10:02:06.865Z,19.47
2018-10-18T10:04:34.548Z,17.20
2018-10-18T10:07:02.234Z,16.60
2018-10-18T10:09:29.843Z,16.50
2018-10-18T10:11:57.531Z,19.00
2018-10-18T10:14:25.175Z,16.90
2018-10-18T10:16:52.857Z,18.97
2018-10-18T10:19:20.891Z,15.33
2018-10-18T10:21:48.551Z,16.40
2018-10-18T10:24:16.199Z,19.83
2018-10-18T10:26:43.846Z,16.27
2018-10-18T10:29:11.655Z,14.30
2018-10-18T10:31:39.331Z,16.03
2018-10-18T10:34:06.963Z,18.97
2018-10-18T10:36:34.639Z,16.53
2018-10-18T10:39:02.321Z,16.37
2018-10-18T10:41:29.898Z,15.17
2018-10-18T10:43:57.600Z,16.00
2018-10-18T10:46:25.247Z,16.17
2018-10-18T10:48:52.859Z,16.20
2018-10-18T10:51:20.462Z,14.63
2018-10-18T10:53:48.149Z,16.70
2018-10-18T10:56:15.886Z,14.03
2018-10-18T10:58:43.500Z,13.17
2018-10-18T11:01:19.671Z,16.43
2018-10-18T11:03:47.959Z,15.70
2018-10-18T11:06:15.735Z,12.93
2018-10-18T11:08:43.442Z,14.57
2018-10-18T11:11:11.811Z,15.23
2018-10-18T11:13:39.431Z,13.13
2018-10-18T11:16:07.228Z,13.30
2018-10-18T11:18:35.710Z,13.90
2018-10-18T11:21:04.327Z,15.43
2018-10-18T11:23:32.643Z,15.57
2018-10-18T11:26:00.368Z,15.93
2018-10-18T11:28:28.000Z,16.60
2018-10-18T11:30:55.596Z,14.00
2018-10-18T11:33:23.348Z,13.40
2018-10-18T11:35:51.048Z,14.50
2018-10-18T11:38:18.729Z,11.80
2018-10-18T11:40:46.451Z,12.70
2018-10-18T11:43:14.163Z,13.10
2018-10-18T11:45:41.782Z,14.13
2018-10-18T11:48:10.858Z,16.07
2018-10-18T11:50:38.528Z,14.60
2018-10-18T11:53:06.219Z,14.70
2018-10-18T11:55:34.089Z,13.40
2018-10-18T11:58:01.819Z,15.07
2018-10-18T12:00:29.545Z,12.73
2018-10-18T12:02:57.215Z,13.93
2018-10-18T12:05:25.024Z,12.70
2018-10-18T12:07:52.749Z,12.67
2018-10-18T12:10:20.446Z,12.50
2018-10-18T12:12:48.149Z,14.37
2018-10-18T12:15:15.864Z,12.90
2018-10-18T12:17:43.563Z,14.20
2018-10-18T12:20:13.325Z,13.63
2018-10-18T12:22:41.011Z,14.30
2018-10-18T12:25:08.978Z,12.20
2018-10-18T12:27:36.666Z,12.33
2018-10-18T12:30:05.035Z,10.07
2018-10-18T12:32:32.666Z,12.93
2018-10-18T12:35:00.327Z,10.47
2018-10-18T12:37:27.978Z,11.47
2018-10-18T12:39:55.678Z,11.37
2018-10-18T12:42:23.341Z,10.67
2018-10-18T12:44:51.003Z,12.77
2018-10-18T12:47:18.663Z,11.77
2018-10-18T12:49:46.319Z,11.90
2018-10-18T12:52:14.119Z,12.50
2018-10-18T12:54:41.937Z,12.50
2018-10-18T12:57:12.263Z,12.80
2018-10-18T12:59:39.991Z,13.90
2018-10-18T13:02:07.875Z,12.57
2018-10-18T13:04:36.001Z,11.73
2018-10-18T13:07:03.979Z,11.57
2018-10-18T13:09:31.658Z,12.10
2018-10-18T13:11:59.411Z,12.50
2018-10-18T13:14:27.735Z,10.70
2018-10-18T13:16:55.387Z,11.73
2018-10-18T13:19:23.047Z,13.03
2018-10-18T13:21:50.681Z,11.43
2018-10-18T13:24:18.377Z,11.20
2018-10-18T13:26:45.994Z,11.33
2018-10-18T13:29:13.667Z,13.00
2018-10-18T13:31:41.272Z,11.73
2018-10-18T13:34:09.096Z,12.20
2018-10-18T13:36:36.782Z,11.20
2018-10-18T13:39:09.382Z,11.97
2018-10-18T13:41:37.102Z,13.33
2018-10-18T13:44:05.094Z,11.07
2018-10-18T13:46:32.771Z,9.03
2018-10-18T13:49:00.449Z,10.33
2018-10-18T13:51:28.074Z,10.77
2018-10-18T13:53:55.799Z,11.40
2018-10-18T13:56:23.394Z,14.03
2018-10-18T13:58:50.977Z,13.10
2018-10-18T14:01:18.642Z,11.53
2018-10-18T14:03:46.322Z,13.17
2018-10-18T14:06:13.983Z,11.70
2018-10-18T14:08:41.722Z,12.90
2018-10-18T14:11:09.426Z,11.53
2018-10-18T14:13:37.074Z,12.10
2018-10-18T14:16:05.081Z,13.50
2018-10-18T14:18:32.733Z,13.53
2018-10-18T14:21:00.527Z,11.80
2018-10-18T14:23:28.209Z,11.97
2018-10-18T14:25:55.941Z,13.10
2018-10-18T14:28:23.542Z,13.43
2018-10-18T14:30:51.219Z,13.00
2018-10-18T14:33:18.863Z,12.80
2018-10-18T14:35:46.580Z,13.03
2018-10-18T14:38:14.409Z,12.33
2018-10-18T14:40:42.072Z,12.93
2018-10-18T14:43:09.735Z,13.77
2018-10-18T14:45:37.417Z,12.47
2018-10-18T14:48:05.143Z,13.23
2018-10-18T14:50:33.016Z,13.57
2018-10-18T14:53:00.501Z,14.13
2018-10-18T14:55:28.130Z,13.03
2018-10-18T14:57:55.859Z,13.03
2018-10-18T15:00:23.624Z,12.77
2018-10-18T15:02:51.262Z,12.70
2018-10-18T15:05:19.003Z,15.70
2018-10-18T15:07:46.595Z,14.10
2018-10-18T15:10:14.454Z,13.50
2018-10-18T15:12:42.377Z,12.67
2018-10-18T15:15:11.104Z,13.47
2018-10-18T15:17:38.891Z,13.20
2018-10-18T15:20:07.287Z,14.30
2018-10-18T15:22:34.946Z,14.97
2018-10-18T15:25:02.695Z,14.50
2018-10-18T15:27:30.437Z,15.10
2018-10-18T15:29:57.976Z,15.80
2018-10-18T15:32:25.758Z,15.13
2018-10-18T15:34:53.310Z,17.33
2018-10-18T15:37:21.091Z,18.60
2018-10-18T15:39:48.771Z,17.87
2018-10-18T15:42:16.419Z,17.70
2018-10-18T15:44:43.972Z,18.60
2018-10-18T15:47:11.757Z,19.40
2018-10-18T15:49:39.306Z,19.23
2018-10-18T15:52:06.993Z,17.83
2018-10-18T15:54:34.729Z,19.47
2018-10-18T15:57:02.389Z,19.17
2018-10-18T15:59:30.039Z,20.47
2018-10-18T16:01:57.683Z,19.37
2018-10-18T16:04:25.369Z,22.43
2018-10-18T16:06:52.999Z,22.63
2018-10-18T16:09:20.578Z,23.97
2018-10-18T16:11:48.194Z,23.27
2018-10-18T16:14:15.826Z,24.40
2018-10-18T16:16:43.416Z,22.90
2018-10-18T16:19:10.997Z,25.03
2018-10-18T16:21:38.655Z,23.00
2018-10-18T16:24:06.347Z,23.03
2018-10-18T16:26:34.018Z,25.03
2018-10-18T16:29:01.703Z,22.90
2018-10-18T16:31:29.286Z,23.83
2018-10-18T16:33:57.101Z,24.23
2018-10-18T16:36:24.651Z,24.30
2018-10-18T16:38:52.407Z,23.97
2018-10-18T16:41:20.234Z,25.20
2018-10-18T16:43:47.744Z,25.10
2018-10-18T16:46:15.454Z,26.50
2018-10-18T16:48:43.071Z,24.00
2018-10-18T16:51:10.747Z,25.77
2018-10-18T16:53:38.364Z,24.57
2018-10-18T16:56:06.065Z,26.20
2018-10-18T16:58:33.734Z,27.13
2018-10-18T17:01:01.495Z,25.93
2018-10-18T17:03:29.240Z,25.37
2018-10-18T17:05:56.899Z,24.90
2018-10-18T17:08:24.591Z,24.77
2018-10-18T17:10:52.215Z,30.57
2018-10-18T17:13:19.929Z,27.13
2018-10-18T17:15:47.516Z,27.20
2018-10-18T17:18:15.195Z,24.93
2018-10-18T17:20:42.925Z,27.20
2018-10-18T17:23:10.622Z,24.63
2018-10-18T17:25:38.295Z,25.03
2018-10-18T17:28:05.978Z,26.83
2018-10-18T17:30:33.702Z,24.83
2018-10-18T17:33:01.340Z,27.07
2018-10-18T17:35:29.005Z,27.90
2018-10-18T17:37:56.643Z,27.00
2018-10-18T17:40:24.289Z,25.60
2018-10-18T17:42:51.956Z,26.07
2018-10-18T17:45:19.612Z,27.73
2018-10-18T17:47:47.316Z,28.97
2018-10-18T17:50:15.019Z,27.93
2018-10-18T17:52:42.813Z,28.87
2018-10-18T17:55:10.487Z,28.93
2018-10-18T17:57:38.520Z,28.90
2018-10-18T18:00:09.332Z,29.03
2018-10-18T18:02:37.031Z,27.53
2018-10-18T18:05:05.105Z,29.53
2018-10-18T18:07:32.788Z,30.00
2018-10-18T18:10:00.457Z,29.67
2018-10-18T18:12:28.184Z,26.77
2018-10-18T18:14:55.904Z,36.17
2018-10-18T18:17:23.527Z,32.67
2018-10-18T18:19:51.146Z,30.10
2018-10-18T18:22:18.823Z,29.33
2018-10-18T18:24:46.469Z,29.40
2018-10-18T18:27:14.176Z,31.80
2018-10-18T18:29:42.279Z,28.20
2018-10-18T18:32:09.899Z,30.90
2018-10-18T18:34:37.601Z,29.47
2018-10-18T18:37:05.331Z,28.63
2018-10-18T18:39:32.951Z,28.67
2018-10-18T18:42:00.603Z,29.47
2018-10-18T18:44:28.404Z,28.93
2018-10-18T18:46:56.028Z,27.93
2018-10-18T18:49:23.687Z,27.43
2018-10-18T18:51:51.388Z,29.87
2018-10-18T18:54:19.041Z,28.63
2018-10-18T18:56:46.805Z,29.63
2018-10-18T18:59:14.459Z,29.27
2018-10-18T19:01:42.131Z,30.73
2018-10-18T19:04:09.735Z,32.70
2018-10-18T19:06:37.370Z,30.00
2018-10-18T19:09:06.804Z,28.73
2018-10-18T19:11:34.379Z,29.83
2018-10-18T19:14:02.029Z,31.23
2018-10-18T19:16:29.639Z,29.83
2018-10-18T19:18:57.291Z,31.00
2018-10-18T19:21:24.972Z,32.00
2018-10-18T19:23:52.616Z,30.30
2018-10-18T19:26:20.302Z,30.17
2018-10-18T19:28:48.071Z,30.80
2018-10-18T19:31:15.610Z,30.07
2018-10-18T19:33:43.263Z,29.67
2018-10-18T19:36:10.857Z,32.07
2018-10-18T19:38:38.499Z,31.67
2018-10-18T19:41:06.274Z,29.93
2018-10-18T19:43:34.715Z,32.60
2018-10-18T19:46:02.481Z,29.80
2018-10-18T19:48:30.027Z,28.47
2018-10-18T19:50:57.668Z,28.73
2018-10-18T19:53:25.251Z,30.37
2018-10-18T19:55:52.874Z,32.23
2018-10-18T19:58:20.504Z,30.00
2018-10-18T20:00:48.215Z,31.97
2018-10-18T20:03:15.956Z,29.67
2018-10-18T20:05:43.637Z,32.30
2018-10-18T20:08:11.356Z,29.93
2018-10-18T20:10:38.948Z,32.27
2018-10-18T20:13:06.785Z,29.43
2018-10-18T20:15:34.435Z,31.40
2018-10-18T20:18:02.103Z,31.23
2018-10-18T20:20:29.718Z,30.60
2018-10-18T20:22:57.314Z,32.23
2018-10-18T20:25:24.949Z,31.03
2018-10-18T20:27:52.623Z,33.90
2018-10-18T20:30:20.259Z,30.53
2018-10-18T20:32:47.936Z,33.80
2018-10-18T20:35:15.683Z,30.27
2018-10-18T20:37:43.379Z,33.63
2018-10-18T20:40:12.983Z,31.40
2018-10-18T20:42:40.991Z,30.60
2018-10-18T20:45:13.263Z,31.33
2018-10-18T20:47:41.104Z,31.80
2018-10-18T20:50:09.651Z,32.43
2018-10-18T20:52:37.362Z,30.23
2018-10-18T20:55:06.152Z,30.30
2018-10-18T20:57:33.756Z,31.00
2018-10-18T21:00:01.465Z,28.00
2018-10-18T21:02:29.039Z,33.33
2018-10-18T21:04:56.805Z,29.87
2018-10-18T21:07:24.443Z,34.33
2018-10-18T21:09:52.089Z,31.60
2018-10-18T21:12:19.755Z,32.43
2018-10-18T21:14:47.359Z,29.37
2018-10-18T21:17:15.163Z,32.40
2018-10-18T21:19:42.923Z,33.60
2018-10-18T21:22:10.567Z,31.10
2018-10-18T21:24:38.203Z,32.87
2018-10-18T21:27:05.841Z,32.23
2018-10-18T21:29:33.588Z,30.13
2018-10-18T21:32:01.315Z,35.30
2018-10-18T21:34:28.947Z,32.67
2018-10-18T21:36:56.578Z,30.47
2018-10-18T21:39:28.775Z,31.53
2018-10-18T21:41:56.404Z,28.77
2018-10-18T21:44:25.618Z,31.70
2018-10-18T21:46:53.741Z,34.53
2018-10-18T21:49:21.405Z,31.50
2018-10-18T21:51:49.075Z,33.60
2018-10-18T21:54:16.728Z,31.73
2018-10-18T21:56:44.463Z,31.87
2018-10-18T21:59:12.029Z,31.23
2018-10-18T22:01:39.695Z,30.57
2018-10-18T22:04:07.296Z,31.63
2018-10-18T22:06:34.876Z,36.20
2018-10-18T22:09:02.750Z,31.20
2018-10-18T22:11:30.363Z,28.53
2018-10-18T22:13:57.971Z,30.97
2018-10-18T22:16:25.592Z,31.80
2018-10-18T22:18:53.121Z,28.67
2018-10-18T22:21:20.805Z,28.13
2018-10-18T22:23:48.482Z,28.17
2018-10-18T22:26:16.135Z,30.67
2018-10-18T22:28:43.787Z,30.70
2018-10-18T22:31:11.537Z,29.40
2018-10-18T22:33:39.200Z,30.63
2018-10-18T22:36:06.871Z,29.87
2018-10-18T22:38:34.555Z,29.03
2018-10-18T22:41:02.335Z,32.63
2018-10-18T22:43:29.931Z,32.93
2018-10-18T22:45:58.408Z,29.73
2018-10-18T22:48:26.338Z,33.10
2018-10-18T22:50:54.233Z,33.23
2018-10-18T22:53:21.804Z,34.63
2018-10-18T22:55:49.480Z,32.00
2018-10-18T22:58:17.066Z,30.63
2018-10-18T23:00:47.932Z,29.57
2018-10-18T23:03:16.608Z,33.33
2018-10-18T23:05:44.295Z,31.17
2018-10-18T23:08:12.070Z,28.87
2018-10-18T23:10:39.731Z,31.63
2018-10-18T23:13:07.559Z,31.80
2018-10-18T23:15:35.289Z,31.23
2018-10-18T23:18:02.961Z,32.00
2018-10-18T23:20:30.510Z,29.13
2018-10-18T23:22:58.148Z,32.70
2018-10-18T23:25:25.755Z,28.87
2018-10-18T23:27:53.371Z,29.67
2018-10-18T23:30:20.968Z,30.83
2018-10-18T23:32:48.617Z,31.00
2018-10-18T23:35:16.307Z,32.53
2018-10-18T23:37:43.847Z,32.67
2018-10-18T23:40:11.463Z,30.77
2018-10-18T23:42:39.110Z,29.73
2018-10-18T23:45:07.351Z,34.33
2018-10-18T23:47:35.046Z,29.70
2018-10-18T23:50:02.882Z,30.63
